sensor_id;sensor_type;location;lat;lon;timestamp;P1;durP1;ratioP1;P2;durP2;ratioP2
55134;SDS011;41031;44.750;11.308;2023-04-01T00:00:01;29.17;;;19.03;;
55134;SDS011;41031;44.750;11.308;2023-04-01T00:02:37;26.70;;;19.73;;
55134;SDS011;41031;44.750;11.308;2023-04-01T00:05:04;29.87;;;19.70;;
55134;SDS011;41031;44.750;11.308;2023-04-01T00:07:32;23.73;;;17.63;;
55134;SDS011;41031;44.750;11.308;2023-04-01T00:09:59;26.17;;;19.43;;
55134;SDS011;41031;44.750;11.308;2023-04-01T00:12:26;36.57;;;20.10;;
55134;SDS011;41031;44.750;11.308;2023-04-01T00:14:53;31.77;;;19.50;;
55134;SDS011;41031;44.750;11.308;2023-04-01T00:17:20;27.63;;;18.10;;
55134;SDS011;41031;44.750;11.308;2023-04-01T00:19:47;27.07;;;19.43;;
55134;SDS011;41031;44.750;11.308;2023-04-01T00:22:14;31.23;;;19.03;;
55134;SDS011;41031;44.750;11.308;2023-04-01T00:24:41;34.20;;;20.40;;
55134;SDS011;41031;44.750;11.308;2023-04-01T00:27:10;29.23;;;19.77;;
55134;SDS011;41031;44.750;11.308;2023-04-01T00:29:37;31.57;;;19.53;;
55134;SDS011;41031;44.750;11.308;2023-04-01T00:32:04;29.03;;;19.53;;
55134;SDS011;41031;44.750;11.308;2023-04-01T00:34:31;30.07;;;19.13;;
55134;SDS011;41031;44.750;11.308;2023-04-01T00:36:58;26.63;;;19.10;;
55134;SDS011;41031;44.750;11.308;2023-04-01T00:39:25;43.27;;;22.20;;
55134;SDS011;41031;44.750;11.308;2023-04-01T00:41:55;33.20;;;19.60;;
55134;SDS011;41031;44.750;11.308;2023-04-01T00:44:23;30.70;;;18.30;;
55134;SDS011;41031;44.750;11.308;2023-04-01T00:46:52;28.77;;;18.07;;
55134;SDS011;41031;44.750;11.308;2023-04-01T00:49:20;26.40;;;18.53;;
55134;SDS011;41031;44.750;11.308;2023-04-01T00:51:53;25.43;;;17.40;;
55134;SDS011;41031;44.750;11.308;2023-04-01T00:54:22;27.07;;;17.53;;
55134;SDS011;41031;44.750;11.308;2023-04-01T00:56:52;25.23;;;17.77;;
55134;SDS011;41031;44.750;11.308;2023-04-01T00:59:29;26.43;;;18.30;;
55134;SDS011;41031;44.750;11.308;2023-04-01T01:02:01;25.47;;;18.33;;
55134;SDS011;41031;44.750;11.308;2023-04-01T01:04:30;26.17;;;19.73;;
55134;SDS011;41031;44.750;11.308;2023-04-01T01:07:02;25.80;;;18.67;;
55134;SDS011;41031;44.750;11.308;2023-04-01T01:12:18;32.83;;;18.33;;
55134;SDS011;41031;44.750;11.308;2023-04-01T01:18:05;27.77;;;19.23;;
55134;SDS011;41031;44.750;11.308;2023-04-01T01:21:30;28.03;;;18.47;;
55134;SDS011;41031;44.750;11.308;2023-04-01T01:38:08;25.80;;;19.07;;
55134;SDS011;41031;44.750;11.308;2023-04-01T01:40:43;29.03;;;18.53;;
55134;SDS011;41031;44.750;11.308;2023-04-01T01:43:15;29.47;;;20.67;;
55134;SDS011;41031;44.750;11.308;2023-04-01T01:45:46;40.40;;;22.27;;
55134;SDS011;41031;44.750;11.308;2023-04-01T01:48:17;30.63;;;22.80;;
55134;SDS011;41031;44.750;11.308;2023-04-01T01:50:46;31.83;;;21.10;;
55134;SDS011;41031;44.750;11.308;2023-04-01T01:53:15;33.60;;;22.53;;
55134;SDS011;41031;44.750;11.308;2023-04-01T01:55:43;32.87;;;20.70;;
55134;SDS011;41031;44.750;11.308;2023-04-01T02:01:03;36.23;;;20.60;;
55134;SDS011;41031;44.750;11.308;2023-04-01T02:03:36;32.43;;;21.27;;
55134;SDS011;41031;44.750;11.308;2023-04-01T02:06:06;28.03;;;20.60;;
55134;SDS011;41031;44.750;11.308;2023-04-01T02:11:25;25.00;;;18.87;;
55134;SDS011;41031;44.750;11.308;2023-04-01T02:14:05;28.23;;;20.63;;
55134;SDS011;41031;44.750;11.308;2023-04-01T02:16:39;29.43;;;20.40;;
55134;SDS011;41031;44.750;11.308;2023-04-01T02:19:16;28.73;;;19.63;;
55134;SDS011;41031;44.750;11.308;2023-04-01T02:21:50;26.17;;;18.93;;
55134;SDS011;41031;44.750;11.308;2023-04-01T02:24:21;26.40;;;21.03;;
55134;SDS011;41031;44.750;11.308;2023-04-01T02:26:51;28.47;;;21.07;;
55134;SDS011;41031;44.750;11.308;2023-04-01T02:29:22;28.33;;;20.60;;
55134;SDS011;41031;44.750;11.308;2023-04-01T02:31:54;26.10;;;19.97;;
55134;SDS011;41031;44.750;11.308;2023-04-01T02:34:22;29.47;;;20.63;;
55134;SDS011;41031;44.750;11.308;2023-04-01T02:36:51;30.57;;;22.43;;
55134;SDS011;41031;44.750;11.308;2023-04-01T02:39:20;27.77;;;20.20;;
55134;SDS011;41031;44.750;11.308;2023-04-01T02:41:47;28.60;;;20.73;;
55134;SDS011;41031;44.750;11.308;2023-04-01T02:44:14;30.57;;;22.37;;
55134;SDS011;41031;44.750;11.308;2023-04-01T02:46:42;35.33;;;20.43;;
55134;SDS011;41031;44.750;11.308;2023-04-01T02:49:10;35.00;;;22.80;;
55134;SDS011;41031;44.750;11.308;2023-04-01T02:51:37;36.50;;;24.63;;
55134;SDS011;41031;44.750;11.308;2023-04-01T02:54:04;32.87;;;23.53;;
55134;SDS011;41031;44.750;11.308;2023-04-01T02:56:31;28.97;;;22.60;;
55134;SDS011;41031;44.750;11.308;2023-04-01T02:58:58;26.63;;;20.53;;
55134;SDS011;41031;44.750;11.308;2023-04-01T03:01:25;35.40;;;23.20;;
55134;SDS011;41031;44.750;11.308;2023-04-01T03:03:52;39.07;;;24.93;;
55134;SDS011;41031;44.750;11.308;2023-04-01T03:06:19;34.47;;;24.40;;
55134;SDS011;41031;44.750;11.308;2023-04-01T03:08:46;33.70;;;24.93;;
55134;SDS011;41031;44.750;11.308;2023-04-01T03:11:13;34.97;;;24.03;;
55134;SDS011;41031;44.750;11.308;2023-04-01T03:13:41;38.87;;;24.37;;
55134;SDS011;41031;44.750;11.308;2023-04-01T03:16:08;31.33;;;23.73;;
55134;SDS011;41031;44.750;11.308;2023-04-01T03:18:35;33.23;;;23.87;;
55134;SDS011;41031;44.750;11.308;2023-04-01T03:21:19;29.93;;;24.40;;
55134;SDS011;41031;44.750;11.308;2023-04-01T03:23:48;38.03;;;25.30;;
55134;SDS011;41031;44.750;11.308;2023-04-01T03:26:16;31.53;;;24.27;;
55134;SDS011;41031;44.750;11.308;2023-04-01T03:28:44;36.67;;;25.53;;
55134;SDS011;41031;44.750;11.308;2023-04-01T03:31:11;31.30;;;23.43;;
55134;SDS011;41031;44.750;11.308;2023-04-01T03:33:45;36.03;;;25.77;;
55134;SDS011;41031;44.750;11.308;2023-04-01T03:36:12;34.87;;;22.77;;
55134;SDS011;41031;44.750;11.308;2023-04-01T03:38:40;31.20;;;23.13;;
55134;SDS011;41031;44.750;11.308;2023-04-01T03:41:11;32.63;;;23.70;;
55134;SDS011;41031;44.750;11.308;2023-04-01T03:43:42;34.80;;;22.37;;
55134;SDS011;41031;44.750;11.308;2023-04-01T03:46:10;34.63;;;23.80;;
55134;SDS011;41031;44.750;11.308;2023-04-01T03:48:38;37.20;;;23.47;;
55134;SDS011;41031;44.750;11.308;2023-04-01T03:51:08;36.67;;;26.00;;
55134;SDS011;41031;44.750;11.308;2023-04-01T03:53:35;31.93;;;24.60;;
55134;SDS011;41031;44.750;11.308;2023-04-01T03:56:05;40.67;;;25.60;;
55134;SDS011;41031;44.750;11.308;2023-04-01T03:58:35;35.83;;;25.07;;
55134;SDS011;41031;44.750;11.308;2023-04-01T04:01:13;33.57;;;25.50;;
55134;SDS011;41031;44.750;11.308;2023-04-01T04:03:45;36.00;;;25.20;;
55134;SDS011;41031;44.750;11.308;2023-04-01T04:06:13;43.00;;;25.53;;
55134;SDS011;41031;44.750;11.308;2023-04-01T04:08:41;35.43;;;25.13;;
55134;SDS011;41031;44.750;11.308;2023-04-01T04:11:08;33.53;;;24.83;;
55134;SDS011;41031;44.750;11.308;2023-04-01T04:13:40;32.47;;;23.97;;
55134;SDS011;41031;44.750;11.308;2023-04-01T04:16:08;31.23;;;23.83;;
55134;SDS011;41031;44.750;11.308;2023-04-01T04:18:40;40.77;;;25.40;;
55134;SDS011;41031;44.750;11.308;2023-04-01T04:21:10;33.70;;;24.23;;
55134;SDS011;41031;44.750;11.308;2023-04-01T04:23:41;35.17;;;25.43;;
55134;SDS011;41031;44.750;11.308;2023-04-01T04:26:13;35.10;;;24.80;;
55134;SDS011;41031;44.750;11.308;2023-04-01T04:28:45;36.23;;;24.87;;
55134;SDS011;41031;44.750;11.308;2023-04-01T04:31:21;30.87;;;24.10;;
55134;SDS011;41031;44.750;11.308;2023-04-01T04:33:50;35.43;;;23.63;;
55134;SDS011;41031;44.750;11.308;2023-04-01T04:36:18;31.00;;;22.97;;
55134;SDS011;41031;44.750;11.308;2023-04-01T04:38:48;36.67;;;25.00;;
55134;SDS011;41031;44.750;11.308;2023-04-01T04:41:15;37.77;;;24.73;;
55134;SDS011;41031;44.750;11.308;2023-04-01T04:43:48;34.27;;;25.70;;
55134;SDS011;41031;44.750;11.308;2023-04-01T04:46:18;36.70;;;24.53;;
55134;SDS011;41031;44.750;11.308;2023-04-01T04:48:48;33.27;;;25.00;;
55134;SDS011;41031;44.750;11.308;2023-04-01T04:51:16;34.20;;;24.93;;
55134;SDS011;41031;44.750;11.308;2023-04-01T04:53:44;33.93;;;24.33;;
55134;SDS011;41031;44.750;11.308;2023-04-01T04:56:12;36.47;;;26.30;;
55134;SDS011;41031;44.750;11.308;2023-04-01T04:58:46;37.80;;;26.53;;
55134;SDS011;41031;44.750;11.308;2023-04-01T05:01:20;32.00;;;26.10;;
55134;SDS011;41031;44.750;11.308;2023-04-01T05:03:47;34.27;;;25.63;;
55134;SDS011;41031;44.750;11.308;2023-04-01T05:06:15;37.60;;;25.40;;
55134;SDS011;41031;44.750;11.308;2023-04-01T05:08:43;32.43;;;23.77;;
55134;SDS011;41031;44.750;11.308;2023-04-01T05:11:12;36.63;;;26.03;;
55134;SDS011;41031;44.750;11.308;2023-04-01T05:13:42;37.37;;;26.30;;
55134;SDS011;41031;44.750;11.308;2023-04-01T05:16:12;37.33;;;26.37;;
55134;SDS011;41031;44.750;11.308;2023-04-01T05:18:41;30.73;;;23.80;;
55134;SDS011;41031;44.750;11.308;2023-04-01T05:21:09;35.03;;;25.73;;
55134;SDS011;41031;44.750;11.308;2023-04-01T05:23:38;37.23;;;24.97;;
55134;SDS011;41031;44.750;11.308;2023-04-01T05:26:06;35.50;;;25.47;;
55134;SDS011;41031;44.750;11.308;2023-04-01T05:28:36;34.77;;;25.83;;
55134;SDS011;41031;44.750;11.308;2023-04-01T05:31:05;30.60;;;23.40;;
55134;SDS011;41031;44.750;11.308;2023-04-01T05:33:36;33.03;;;25.23;;
55134;SDS011;41031;44.750;11.308;2023-04-01T05:36:14;34.63;;;24.57;;
55134;SDS011;41031;44.750;11.308;2023-04-01T05:38:42;35.97;;;25.13;;
55134;SDS011;41031;44.750;11.308;2023-04-01T05:41:13;33.83;;;24.43;;
55134;SDS011;41031;44.750;11.308;2023-04-01T05:43:44;32.47;;;23.07;;
55134;SDS011;41031;44.750;11.308;2023-04-01T05:46:38;33.00;;;23.90;;
55134;SDS011;41031;44.750;11.308;2023-04-01T05:49:19;34.17;;;24.27;;
55134;SDS011;41031;44.750;11.308;2023-04-01T05:51:48;30.23;;;24.43;;
55134;SDS011;41031;44.750;11.308;2023-04-01T05:54:15;33.90;;;24.87;;
55134;SDS011;41031;44.750;11.308;2023-04-01T05:56:43;29.67;;;24.23;;
55134;SDS011;41031;44.750;11.308;2023-04-01T05:59:15;34.20;;;24.23;;
55134;SDS011;41031;44.750;11.308;2023-04-01T06:01:42;38.07;;;25.40;;
55134;SDS011;41031;44.750;11.308;2023-04-01T06:04:13;37.07;;;25.73;;
55134;SDS011;41031;44.750;11.308;2023-04-01T06:06:42;30.57;;;23.60;;
55134;SDS011;41031;44.750;11.308;2023-04-01T06:09:19;31.43;;;23.93;;
55134;SDS011;41031;44.750;11.308;2023-04-01T06:22:56;31.97;;;22.87;;
55134;SDS011;41031;44.750;11.308;2023-04-01T06:31:34;32.80;;;23.80;;
55134;SDS011;41031;44.750;11.308;2023-04-01T06:42:21;32.73;;;22.93;;
55134;SDS011;41031;44.750;11.308;2023-04-01T06:48:09;28.37;;;21.90;;
55134;SDS011;41031;44.750;11.308;2023-04-01T06:51:24;26.83;;;21.73;;
55134;SDS011;41031;44.750;11.308;2023-04-01T06:54:30;31.77;;;21.67;;
55134;SDS011;41031;44.750;11.308;2023-04-01T06:59:52;28.83;;;19.90;;
55134;SDS011;41031;44.750;11.308;2023-04-01T07:02:24;27.50;;;20.10;;
55134;SDS011;41031;44.750;11.308;2023-04-01T07:04:53;30.17;;;18.53;;
55134;SDS011;41031;44.750;11.308;2023-04-01T07:07:33;24.37;;;19.17;;
55134;SDS011;41031;44.750;11.308;2023-04-01T07:10:20;29.57;;;20.43;;
55134;SDS011;41031;44.750;11.308;2023-04-01T07:13:36;26.07;;;19.87;;
55134;SDS011;41031;44.750;11.308;2023-04-01T07:18:57;23.10;;;18.60;;
55134;SDS011;41031;44.750;11.308;2023-04-01T07:22:02;25.73;;;19.87;;
55134;SDS011;41031;44.750;11.308;2023-04-01T07:25:03;24.97;;;18.17;;
55134;SDS011;41031;44.750;11.308;2023-04-01T07:27:38;26.47;;;17.97;;
55134;SDS011;41031;44.750;11.308;2023-04-01T07:30:12;27.10;;;18.87;;
55134;SDS011;41031;44.750;11.308;2023-04-01T07:32:52;23.50;;;16.07;;
55134;SDS011;41031;44.750;11.308;2023-04-01T07:35:35;19.83;;;15.67;;
55134;SDS011;41031;44.750;11.308;2023-04-01T07:44:21;19.90;;;14.93;;
55134;SDS011;41031;44.750;11.308;2023-04-01T07:52:42;18.77;;;13.63;;
55134;SDS011;41031;44.750;11.308;2023-04-01T07:55:22;18.90;;;14.20;;
55134;SDS011;41031;44.750;11.308;2023-04-01T07:58:15;18.27;;;12.97;;
55134;SDS011;41031;44.750;11.308;2023-04-01T08:00:57;16.50;;;12.00;;
55134;SDS011;41031;44.750;11.308;2023-04-01T08:03:53;20.13;;;13.03;;
55134;SDS011;41031;44.750;11.308;2023-04-01T08:06:26;17.27;;;13.20;;
55134;SDS011;41031;44.750;11.308;2023-04-01T08:12:24;15.20;;;10.63;;
55134;SDS011;41031;44.750;11.308;2023-04-01T08:24:41;12.73;;;7.27;;
55134;SDS011;41031;44.750;11.308;2023-04-01T08:27:26;9.73;;;6.50;;
55134;SDS011;41031;44.750;11.308;2023-04-01T08:30:15;9.20;;;5.93;;
55134;SDS011;41031;44.750;11.308;2023-04-01T08:35:33;7.10;;;6.17;;
55134;SDS011;41031;44.750;11.308;2023-04-01T08:41:10;10.50;;;6.53;;
55134;SDS011;41031;44.750;11.308;2023-04-01T08:44:19;11.20;;;7.10;;
55134;SDS011;41031;44.750;11.308;2023-04-01T08:49:34;9.40;;;5.87;;
55134;SDS011;41031;44.750;11.308;2023-04-01T08:58:30;8.63;;;6.30;;
55134;SDS011;41031;44.750;11.308;2023-04-01T09:22:24;6.63;;;4.87;;
55134;SDS011;41031;44.750;11.308;2023-04-01T09:28:10;6.33;;;5.57;;
55134;SDS011;41031;44.750;11.308;2023-04-01T09:36:45;6.73;;;5.33;;
55134;SDS011;41031;44.750;11.308;2023-04-01T09:53:36;7.33;;;4.23;;
55134;SDS011;41031;44.750;11.308;2023-04-01T10:08:19;6.47;;;3.47;;
55134;SDS011;41031;44.750;11.308;2023-04-01T10:23:16;2.77;;;2.23;;
55134;SDS011;41031;44.750;11.308;2023-04-01T10:32:51;4.47;;;1.80;;
55134;SDS011;41031;44.750;11.308;2023-04-01T10:44:27;3.30;;;2.20;;
55134;SDS011;41031;44.750;11.308;2023-04-01T10:55:48;2.50;;;1.73;;
55134;SDS011;41031;44.750;11.308;2023-04-01T11:22:24;6.57;;;2.00;;
55134;SDS011;41031;44.750;11.308;2023-04-01T11:34:11;1.63;;;1.27;;
55134;SDS011;41031;44.750;11.308;2023-04-01T11:43:38;1.17;;;1.07;;
55134;SDS011;41031;44.750;11.308;2023-04-01T11:46:46;3.40;;;2.03;;
55134;SDS011;41031;44.750;11.308;2023-04-01T12:12:52;4.70;;;1.43;;
55134;SDS011;41031;44.750;11.308;2023-04-01T12:18:16;2.10;;;1.87;;
55134;SDS011;41031;44.750;11.308;2023-04-01T12:35:24;4.77;;;1.90;;
55134;SDS011;41031;44.750;11.308;2023-04-01T12:49:06;4.67;;;2.43;;
55134;SDS011;41031;44.750;11.308;2023-04-01T12:54:48;2.30;;;2.10;;
55134;SDS011;41031;44.750;11.308;2023-04-01T13:00:46;3.63;;;2.40;;
55134;SDS011;41031;44.750;11.308;2023-04-01T13:16:21;4.63;;;3.43;;
55134;SDS011;41031;44.750;11.308;2023-04-01T13:18:55;4.03;;;2.77;;
55134;SDS011;41031;44.750;11.308;2023-04-01T13:27:14;5.80;;;2.83;;
55134;SDS011;41031;44.750;11.308;2023-04-01T13:41:05;6.00;;;3.80;;
55134;SDS011;41031;44.750;11.308;2023-04-01T13:44:14;4.93;;;3.20;;
55134;SDS011;41031;44.750;11.308;2023-04-01T13:47:05;2.93;;;2.67;;
55134;SDS011;41031;44.750;11.308;2023-04-01T13:57:52;4.17;;;2.67;;
55134;SDS011;41031;44.750;11.308;2023-04-01T14:06:09;2.93;;;1.83;;
55134;SDS011;41031;44.750;11.308;2023-04-01T14:08:52;3.80;;;2.10;;
55134;SDS011;41031;44.750;11.308;2023-04-01T14:25:50;3.83;;;2.17;;
55134;SDS011;41031;44.750;11.308;2023-04-01T14:33:42;1.63;;;1.20;;
55134;SDS011;41031;44.750;11.308;2023-04-01T14:42:47;0.50;;;0.50;;
55134;SDS011;41031;44.750;11.308;2023-04-01T14:48:07;5.80;;;1.57;;
55134;SDS011;41031;44.750;11.308;2023-04-01T14:50:53;1.37;;;1.27;;
55134;SDS011;41031;44.750;11.308;2023-04-01T14:53:31;1.27;;;0.97;;
55134;SDS011;41031;44.750;11.308;2023-04-01T14:56:04;0.83;;;0.43;;
55134;SDS011;41031;44.750;11.308;2023-04-01T14:58:45;0.30;;;0.30;;
55134;SDS011;41031;44.750;11.308;2023-04-01T15:15:00;11.77;;;0.40;;
55134;SDS011;41031;44.750;11.308;2023-04-01T15:28:16;0.47;;;0.27;;
55134;SDS011;41031;44.750;11.308;2023-04-01T15:31:08;0.60;;;0.20;;
55134;SDS011;41031;44.750;11.308;2023-04-01T15:33:49;0.10;;;0.10;;
55134;SDS011;41031;44.750;11.308;2023-04-01T15:42:27;1.47;;;0.60;;
55134;SDS011;41031;44.750;11.308;2023-04-01T15:44:58;1.43;;;0.50;;
55134;SDS011;41031;44.750;11.308;2023-04-01T15:47:59;0.63;;;0.27;;
55134;SDS011;41031;44.750;11.308;2023-04-01T15:50:46;0.27;;;0.23;;
55134;SDS011;41031;44.750;11.308;2023-04-01T15:53:37;0.60;;;0.30;;
55134;SDS011;41031;44.750;11.308;2023-04-01T15:58:51;0.70;;;0.30;;
55134;SDS011;41031;44.750;11.308;2023-04-01T16:01:44;1.57;;;0.40;;
55134;SDS011;41031;44.750;11.308;2023-04-01T16:04:46;0.80;;;0.40;;
55134;SDS011;41031;44.750;11.308;2023-04-01T16:15:39;0.40;;;0.40;;
55134;SDS011;41031;44.750;11.308;2023-04-01T16:18:17;1.17;;;0.90;;
55134;SDS011;41031;44.750;11.308;2023-04-01T16:21:02;12.93;;;0.80;;
55134;SDS011;41031;44.750;11.308;2023-04-01T16:23:51;1.00;;;0.43;;
55134;SDS011;41031;44.750;11.308;2023-04-01T16:26:26;1.70;;;0.30;;
55134;SDS011;41031;44.750;11.308;2023-04-01T16:34:38;2.47;;;0.23;;
55134;SDS011;41031;44.750;11.308;2023-04-01T16:37:15;0.20;;;0.20;;
55134;SDS011;41031;44.750;11.308;2023-04-01T16:39:58;0.60;;;0.60;;
55134;SDS011;41031;44.750;11.308;2023-04-01T16:42:39;0.40;;;0.40;;
55134;SDS011;41031;44.750;11.308;2023-04-01T16:47:58;0.80;;;0.67;;
55134;SDS011;41031;44.750;11.308;2023-04-01T16:53:41;1.17;;;0.57;;
55134;SDS011;41031;44.750;11.308;2023-04-01T16:56:22;1.00;;;0.50;;
55134;SDS011;41031;44.750;11.308;2023-04-01T17:04:30;1.37;;;0.80;;
55134;SDS011;41031;44.750;11.308;2023-04-01T17:09:58;1.17;;;0.80;;
55134;SDS011;41031;44.750;11.308;2023-04-01T17:12:35;0.60;;;0.60;;
55134;SDS011;41031;44.750;11.308;2023-04-01T17:27:01;4.23;;;0.83;;
55134;SDS011;41031;44.750;11.308;2023-04-01T17:29:10;0.90;;;0.77;;
55134;SDS011;41031;44.750;11.308;2023-04-01T17:43:47;5.00;;;1.80;;
55134;SDS011;41031;44.750;11.308;2023-04-01T17:52:18;2.33;;;0.90;;
55134;SDS011;41031;44.750;11.308;2023-04-01T18:00:17;4.17;;;1.40;;
55134;SDS011;41031;44.750;11.308;2023-04-01T18:03:21;3.20;;;1.40;;
55134;SDS011;41031;44.750;11.308;2023-04-01T18:05:53;3.07;;;1.50;;
55134;SDS011;41031;44.750;11.308;2023-04-01T18:11:27;3.33;;;2.20;;
55134;SDS011;41031;44.750;11.308;2023-04-01T18:19:29;5.47;;;1.33;;
55134;SDS011;41031;44.750;11.308;2023-04-01T18:22:38;4.60;;;1.87;;
55134;SDS011;41031;44.750;11.308;2023-04-01T18:25:13;6.30;;;1.50;;
55134;SDS011;41031;44.750;11.308;2023-04-01T18:27:52;4.27;;;1.57;;
55134;SDS011;41031;44.750;11.308;2023-04-01T18:30:32;2.63;;;1.13;;
55134;SDS011;41031;44.750;11.308;2023-04-01T18:36:02;2.90;;;1.40;;
55134;SDS011;41031;44.750;11.308;2023-04-01T18:39:22;3.83;;;1.30;;
55134;SDS011;41031;44.750;11.308;2023-04-01T18:42:16;5.33;;;1.50;;
55134;SDS011;41031;44.750;11.308;2023-04-01T18:54:11;10.40;;;1.63;;
55134;SDS011;41031;44.750;11.308;2023-04-01T18:56:48;2.53;;;1.20;;
55134;SDS011;41031;44.750;11.308;2023-04-01T18:59:20;3.97;;;1.60;;
55134;SDS011;41031;44.750;11.308;2023-04-01T19:05:00;1.63;;;0.93;;
55134;SDS011;41031;44.750;11.308;2023-04-01T19:07:47;2.13;;;1.20;;
55134;SDS011;41031;44.750;11.308;2023-04-01T19:10:45;3.37;;;1.30;;
55134;SDS011;41031;44.750;11.308;2023-04-01T19:13:40;2.20;;;1.10;;
55134;SDS011;41031;44.750;11.308;2023-04-01T19:21:32;2.07;;;1.30;;
55134;SDS011;41031;44.750;11.308;2023-04-01T19:38:16;1.97;;;1.00;;
55134;SDS011;41031;44.750;11.308;2023-04-01T19:41:04;3.37;;;1.10;;
55134;SDS011;41031;44.750;11.308;2023-04-01T19:46:38;2.00;;;1.23;;
55134;SDS011;41031;44.750;11.308;2023-04-01T20:00:25;1.63;;;1.00;;
55134;SDS011;41031;44.750;11.308;2023-04-01T20:11:57;1.50;;;0.93;;
55134;SDS011;41031;44.750;11.308;2023-04-01T20:14:41;2.50;;;0.90;;
55134;SDS011;41031;44.750;11.308;2023-04-01T20:17:38;3.07;;;1.20;;
55134;SDS011;41031;44.750;11.308;2023-04-01T20:36:22;2.23;;;1.10;;
55134;SDS011;41031;44.750;11.308;2023-04-01T20:39:20;5.20;;;1.37;;
55134;SDS011;41031;44.750;11.308;2023-04-01T20:48:09;2.37;;;0.87;;
55134;SDS011;41031;44.750;11.308;2023-04-01T20:53:41;3.50;;;1.13;;
55134;SDS011;41031;44.750;11.308;2023-04-01T20:56:18;2.93;;;1.10;;
55134;SDS011;41031;44.750;11.308;2023-04-01T21:12:58;4.07;;;1.70;;
55134;SDS011;41031;44.750;11.308;2023-04-01T21:15:52;6.43;;;1.70;;
55134;SDS011;41031;44.750;11.308;2023-04-01T21:21:36;2.70;;;1.13;;
55134;SDS011;41031;44.750;11.308;2023-04-01T21:30:24;4.80;;;1.53;;
55134;SDS011;41031;44.750;11.308;2023-04-01T21:33:03;5.47;;;1.47;;
55134;SDS011;41031;44.750;11.308;2023-04-01T21:38:27;6.37;;;2.13;;
55134;SDS011;41031;44.750;11.308;2023-04-01T21:41:12;5.50;;;1.53;;
55134;SDS011;41031;44.750;11.308;2023-04-01T21:47:16;11.70;;;2.20;;
55134;SDS011;41031;44.750;11.308;2023-04-01T22:05:30;5.23;;;2.30;;
55134;SDS011;41031;44.750;11.308;2023-04-01T22:10:29;9.13;;;2.00;;
55134;SDS011;41031;44.750;11.308;2023-04-01T22:18:46;7.17;;;2.20;;
55134;SDS011;41031;44.750;11.308;2023-04-01T22:21:19;5.90;;;1.97;;
55134;SDS011;41031;44.750;11.308;2023-04-01T22:26:38;5.47;;;1.87;;
55134;SDS011;41031;44.750;11.308;2023-04-01T22:29:20;9.47;;;2.07;;
55134;SDS011;41031;44.750;11.308;2023-04-01T22:32:00;4.50;;;1.90;;
55134;SDS011;41031;44.750;11.308;2023-04-01T22:34:49;12.60;;;2.13;;
55134;SDS011;41031;44.750;11.308;2023-04-01T22:43:00;11.33;;;2.53;;
55134;SDS011;41031;44.750;11.308;2023-04-01T22:48:44;7.90;;;1.73;;
55134;SDS011;41031;44.750;11.308;2023-04-01T22:51:22;10.43;;;3.07;;
55134;SDS011;41031;44.750;11.308;2023-04-01T22:56:28;9.10;;;2.03;;
55134;SDS011;41031;44.750;11.308;2023-04-01T23:01:59;8.77;;;1.90;;
55134;SDS011;41031;44.750;11.308;2023-04-01T23:04:34;12.63;;;2.63;;
55134;SDS011;41031;44.750;11.308;2023-04-01T23:07:14;5.63;;;2.23;;
55134;SDS011;41031;44.750;11.308;2023-04-01T23:09:55;8.20;;;1.90;;
55134;SDS011;41031;44.750;11.308;2023-04-01T23:12:25;5.30;;;2.10;;
55134;SDS011;41031;44.750;11.308;2023-04-01T23:14:56;8.07;;;2.30;;
55134;SDS011;41031;44.750;11.308;2023-04-01T23:17:35;6.77;;;1.97;;
55134;SDS011;41031;44.750;11.308;2023-04-01T23:20:27;12.60;;;2.63;;
55134;SDS011;41031;44.750;11.308;2023-04-01T23:23:19;8.13;;;1.83;;
55134;SDS011;41031;44.750;11.308;2023-04-01T23:34:17;6.70;;;2.40;;
55134;SDS011;41031;44.750;11.308;2023-04-01T23:37:11;8.17;;;3.63;;
55134;SDS011;41031;44.750;11.308;2023-04-01T23:39:43;9.83;;;3.37;;
55134;SDS011;41031;44.750;11.308;2023-04-01T23:42:18;6.23;;;2.10;;
55134;SDS011;41031;44.750;11.308;2023-04-01T23:44:53;10.60;;;2.37;;
55134;SDS011;41031;44.750;11.308;2023-04-01T23:47:24;12.53;;;2.23;;
55134;SDS011;41031;44.750;11.308;2023-04-01T23:50:07;8.27;;;2.13;;
55134;SDS011;41031;44.750;11.308;2023-04-01T23:53:02;11.20;;;2.43;;
55134;SDS011;41031;44.750;11.308;2023-04-01T23:55:31;8.33;;;3.33;;
55134;SDS011;41031;44.750;11.308;2023-04-01T23:58:00;3.80;;;1.60;;
